sensor_id;sensor_type;location;lat;lon;timestamp;pressure;altitude;pressure_sealevel;temperature
60615;BMP280;46444;45.590;5.284;2023-02-20T00:00:32;100098.09;;;8.15
60615;BMP280;46444;45.590;5.284;2023-02-20T00:02:58;100092.97;;;8.13
60615;BMP280;46444;45.590;5.284;2023-02-20T00:05:24;100096.97;;;8.03
60615;BMP280;46444;45.590;5.284;2023-02-20T00:07:49;100102.09;;;8.05
60615;BMP280;46444;45.590;5.284;2023-02-20T00:10:18;100091.63;;;8.03
60615;BMP280;46444;45.590;5.284;2023-02-20T00:12:44;100096.50;;;8.00
60615;BMP280;46444;45.590;5.284;2023-02-20T00:15:13;100096.44;;;7.93
60615;BMP280;46444;45.590;5.284;2023-02-20T00:17:38;100095.19;;;7.89
60615;BMP280;46444;45.590;5.284;2023-02-20T00:20:04;100095.53;;;7.86
60615;BMP280;46444;45.590;5.284;2023-02-20T00:22:30;100092.44;;;7.83
60615;BMP280;46444;45.590;5.284;2023-02-20T00:24:58;100090.59;;;7.83
60615;BMP280;46444;45.590;5.284;2023-02-20T00:27:26;100093.81;;;7.79
60615;BMP280;46444;45.590;5.284;2023-02-20T00:29:52;100097.47;;;7.78
60615;BMP280;46444;45.590;5.284;2023-02-20T00:32:18;100090.97;;;7.80
60615;BMP280;46444;45.590;5.284;2023-02-20T00:34:43;100103.19;;;7.75
60615;BMP280;46444;45.590;5.284;2023-02-20T00:37:08;100097.44;;;7.71
60615;BMP280;46444;45.590;5.284;2023-02-20T00:39:34;100102.81;;;7.78
60615;BMP280;46444;45.590;5.284;2023-02-20T00:41:59;100101.53;;;7.74
60615;BMP280;46444;45.590;5.284;2023-02-20T00:44:25;100106.47;;;7.77
60615;BMP280;46444;45.590;5.284;2023-02-20T00:46:51;100099.25;;;7.71
60615;BMP280;46444;45.590;5.284;2023-02-20T00:49:16;100105.75;;;7.68
60615;BMP280;46444;45.590;5.284;2023-02-20T00:51:41;100108.81;;;7.65
60615;BMP280;46444;45.590;5.284;2023-02-20T00:54:07;100109.56;;;7.59
60615;BMP280;46444;45.590;5.284;2023-02-20T00:56:32;100102.94;;;7.55
60615;BMP280;46444;45.590;5.284;2023-02-20T00:58:58;100111.56;;;7.57
60615;BMP280;46444;45.590;5.284;2023-02-20T01:01:23;100106.22;;;7.57
60615;BMP280;46444;45.590;5.284;2023-02-20T01:03:49;100104.41;;;7.58
60615;BMP280;46444;45.590;5.284;2023-02-20T01:06:18;100101.47;;;7.53
60615;BMP280;46444;45.590;5.284;2023-02-20T01:08:50;100100.41;;;7.47
60615;BMP280;46444;45.590;5.284;2023-02-20T01:11:16;100098.38;;;7.49
60615;BMP280;46444;45.590;5.284;2023-02-20T01:13:41;100088.81;;;7.40
60615;BMP280;46444;45.590;5.284;2023-02-20T01:16:13;100087.56;;;7.36
60615;BMP280;46444;45.590;5.284;2023-02-20T01:18:39;100085.53;;;7.38
60615;BMP280;46444;45.590;5.284;2023-02-20T01:21:04;100096.56;;;7.35
60615;BMP280;46444;45.590;5.284;2023-02-20T01:23:33;100098.19;;;7.36
60615;BMP280;46444;45.590;5.284;2023-02-20T01:26:11;100101.03;;;7.35
60615;BMP280;46444;45.590;5.284;2023-02-20T01:28:37;100105.06;;;7.31
60615;BMP280;46444;45.590;5.284;2023-02-20T01:31:02;100106.25;;;7.28
60615;BMP280;46444;45.590;5.284;2023-02-20T01:33:28;100093.50;;;7.24
60615;BMP280;46444;45.590;5.284;2023-02-20T01:35:53;100102.59;;;7.29
60615;BMP280;46444;45.590;5.284;2023-02-20T01:38:18;100096.72;;;7.34
60615;BMP280;46444;45.590;5.284;2023-02-20T01:40:48;100091.41;;;7.34
60615;BMP280;46444;45.590;5.284;2023-02-20T01:43:14;100075.00;;;7.30
60615;BMP280;46444;45.590;5.284;2023-02-20T01:45:40;100068.22;;;7.28
60615;BMP280;46444;45.590;5.284;2023-02-20T01:48:05;100071.78;;;7.20
60615;BMP280;46444;45.590;5.284;2023-02-20T01:50:41;100067.38;;;7.27
60615;BMP280;46444;45.590;5.284;2023-02-20T01:53:10;100064.81;;;7.34
60615;BMP280;46444;45.590;5.284;2023-02-20T01:55:41;100070.31;;;7.32
60615;BMP280;46444;45.590;5.284;2023-02-20T01:58:12;100071.59;;;7.36
60615;BMP280;46444;45.590;5.284;2023-02-20T02:00:39;100075.06;;;7.22
60615;BMP280;46444;45.590;5.284;2023-02-20T02:03:08;100063.34;;;7.17
60615;BMP280;46444;45.590;5.284;2023-02-20T02:05:35;100070.88;;;7.13
60615;BMP280;46444;45.590;5.284;2023-02-20T02:08:03;100072.53;;;7.14
60615;BMP280;46444;45.590;5.284;2023-02-20T02:10:38;100075.28;;;7.06
60615;BMP280;46444;45.590;5.284;2023-02-20T02:13:07;100074.16;;;7.15
60615;BMP280;46444;45.590;5.284;2023-02-20T02:15:33;100076.19;;;7.13
60615;BMP280;46444;45.590;5.284;2023-02-20T02:18:46;100087.91;;;7.04
60615;BMP280;46444;45.590;5.284;2023-02-20T02:26:59;100087.72;;;6.91
60615;BMP280;46444;45.590;5.284;2023-02-20T02:37:55;100073.22;;;6.79
60615;BMP280;46444;45.590;5.284;2023-02-20T02:43:48;100064.91;;;6.82
60615;BMP280;46444;45.590;5.284;2023-02-20T02:49:19;100057.38;;;6.71
60615;BMP280;46444;45.590;5.284;2023-02-20T02:51:43;100069.66;;;6.72
60615;BMP280;46444;45.590;5.284;2023-02-20T02:54:24;100070.66;;;6.71
60615;BMP280;46444;45.590;5.284;2023-02-20T02:57:24;100070.66;;;6.71
60615;BMP280;46444;45.590;5.284;2023-02-20T02:59:55;100071.38;;;6.65
60615;BMP280;46444;45.590;5.284;2023-02-20T03:02:22;100068.06;;;6.63
60615;BMP280;46444;45.590;5.284;2023-02-20T03:04:51;100061.22;;;6.69
60615;BMP280;46444;45.590;5.284;2023-02-20T03:07:17;100052.03;;;6.57
60615;BMP280;46444;45.590;5.284;2023-02-20T03:09:48;100062.75;;;6.63
60615;BMP280;46444;45.590;5.284;2023-02-20T03:12:15;100061.47;;;6.59
60615;BMP280;46444;45.590;5.284;2023-02-20T03:17:33;100060.72;;;6.51
60615;BMP280;46444;45.590;5.284;2023-02-20T03:20:08;100065.75;;;6.46
60615;BMP280;46444;45.590;5.284;2023-02-20T03:22:57;100060.59;;;6.44
60615;BMP280;46444;45.590;5.284;2023-02-20T03:25:27;100057.59;;;6.47
60615;BMP280;46444;45.590;5.284;2023-02-20T03:28:15;100058.97;;;6.43
60615;BMP280;46444;45.590;5.284;2023-02-20T03:30:53;100072.97;;;6.37
60615;BMP280;46444;45.590;5.284;2023-02-20T03:33:35;100060.88;;;6.35
60615;BMP280;46444;45.590;5.284;2023-02-20T03:36:29;100067.66;;;6.37
60615;BMP280;46444;45.590;5.284;2023-02-20T03:39:22;100056.09;;;6.30
60615;BMP280;46444;45.590;5.284;2023-02-20T03:42:11;100060.22;;;6.33
60615;BMP280;46444;45.590;5.284;2023-02-20T03:44:56;100046.03;;;6.26
60615;BMP280;46444;45.590;5.284;2023-02-20T03:47:26;100033.38;;;6.28
60615;BMP280;46444;45.590;5.284;2023-02-20T03:49:52;100046.19;;;6.24
60615;BMP280;46444;45.590;5.284;2023-02-20T03:52:19;100047.38;;;6.22
60615;BMP280;46444;45.590;5.284;2023-02-20T03:54:45;100036.28;;;6.18
60615;BMP280;46444;45.590;5.284;2023-02-20T03:57:13;100042.91;;;6.22
60615;BMP280;46444;45.590;5.284;2023-02-20T03:59:43;100039.28;;;6.15
60615;BMP280;46444;45.590;5.284;2023-02-20T04:02:21;100039.94;;;6.17
60615;BMP280;46444;45.590;5.284;2023-02-20T04:04:52;100034.19;;;6.14
60615;BMP280;46444;45.590;5.284;2023-02-20T04:07:28;100044.31;;;6.10
60615;BMP280;46444;45.590;5.284;2023-02-20T04:09:56;100039.72;;;6.04
60615;BMP280;46444;45.590;5.284;2023-02-20T04:12:25;100043.34;;;6.03
60615;BMP280;46444;45.590;5.284;2023-02-20T04:14:54;100044.03;;;6.05
60615;BMP280;46444;45.590;5.284;2023-02-20T04:17:25;100038.06;;;6.03
60615;BMP280;46444;45.590;5.284;2023-02-20T04:19:53;100039.06;;;6.02
60615;BMP280;46444;45.590;5.284;2023-02-20T04:22:30;100037.59;;;6.00
60615;BMP280;46444;45.590;5.284;2023-02-20T04:25:00;100035.53;;;5.87
60615;BMP280;46444;45.590;5.284;2023-02-20T04:27:26;100038.19;;;5.87
60615;BMP280;46444;45.590;5.284;2023-02-20T04:29:52;100038.28;;;5.94
60615;BMP280;46444;45.590;5.284;2023-02-20T04:32:18;100043.81;;;5.92
60615;BMP280;46444;45.590;5.284;2023-02-20T04:34:43;100039.94;;;5.95
60615;BMP280;46444;45.590;5.284;2023-02-20T04:37:14;100044.13;;;5.89
60615;BMP280;46444;45.590;5.284;2023-02-20T04:39:41;100040.16;;;5.85
60615;BMP280;46444;45.590;5.284;2023-02-20T04:42:08;100044.50;;;5.86
60615;BMP280;46444;45.590;5.284;2023-02-20T04:44:37;100052.78;;;5.83
60615;BMP280;46444;45.590;5.284;2023-02-20T04:47:07;100049.50;;;5.81
60615;BMP280;46444;45.590;5.284;2023-02-20T04:49:37;100046.84;;;5.81
60615;BMP280;46444;45.590;5.284;2023-02-20T04:52:06;100050.16;;;5.75
60615;BMP280;46444;45.590;5.284;2023-02-20T04:54:31;100051.66;;;5.78
60615;BMP280;46444;45.590;5.284;2023-02-20T04:56:57;100051.44;;;5.79
60615;BMP280;46444;45.590;5.284;2023-02-20T04:59:22;100042.56;;;5.80
60615;BMP280;46444;45.590;5.284;2023-02-20T05:01:47;100051.81;;;5.76
60615;BMP280;46444;45.590;5.284;2023-02-20T05:04:18;100042.22;;;5.75
60615;BMP280;46444;45.590;5.284;2023-02-20T05:06:51;100048.16;;;5.77
60615;BMP280;46444;45.590;5.284;2023-02-20T05:09:18;100044.19;;;5.73
60615;BMP280;46444;45.590;5.284;2023-02-20T05:11:43;100048.88;;;5.71
60615;BMP280;46444;45.590;5.284;2023-02-20T05:14:09;100041.53;;;5.73
60615;BMP280;46444;45.590;5.284;2023-02-20T05:16:36;100040.28;;;5.69
60615;BMP280;46444;45.590;5.284;2023-02-20T05:19:02;100046.28;;;5.63
60615;BMP280;46444;45.590;5.284;2023-02-20T05:21:28;100051.91;;;5.60
60615;BMP280;46444;45.590;5.284;2023-02-20T05:24:12;100055.03;;;5.64
60615;BMP280;46444;45.590;5.284;2023-02-20T05:26:38;100056.41;;;5.60
60615;BMP280;46444;45.590;5.284;2023-02-20T05:29:04;100052.75;;;5.61
60615;BMP280;46444;45.590;5.284;2023-02-20T05:31:30;100039.28;;;5.62
60615;BMP280;46444;45.590;5.284;2023-02-20T05:33:55;100036.47;;;5.64
60615;BMP280;46444;45.590;5.284;2023-02-20T05:36:20;100030.22;;;5.57
60615;BMP280;46444;45.590;5.284;2023-02-20T05:38:46;100033.56;;;5.51
60615;BMP280;46444;45.590;5.284;2023-02-20T05:41:16;100040.88;;;5.49
60615;BMP280;46444;45.590;5.284;2023-02-20T05:43:42;100039.88;;;5.50
60615;BMP280;46444;45.590;5.284;2023-02-20T05:46:07;100030.59;;;5.46
60615;BMP280;46444;45.590;5.284;2023-02-20T05:48:33;100033.94;;;5.40
60615;BMP280;46444;45.590;5.284;2023-02-20T05:50:58;100032.25;;;5.47
60615;BMP280;46444;45.590;5.284;2023-02-20T05:53:27;100030.97;;;5.43
60615;BMP280;46444;45.590;5.284;2023-02-20T05:55:52;100030.50;;;5.39
60615;BMP280;46444;45.590;5.284;2023-02-20T05:58:18;100029.13;;;5.43
60615;BMP280;46444;45.590;5.284;2023-02-20T06:00:43;100033.94;;;5.40
60615;BMP280;46444;45.590;5.284;2023-02-20T06:03:09;100035.44;;;5.42
60615;BMP280;46444;45.590;5.284;2023-02-20T06:05:34;100030.66;;;5.38
60615;BMP280;46444;45.590;5.284;2023-02-20T06:08:00;100026.38;;;5.37
60615;BMP280;46444;45.590;5.284;2023-02-20T06:10:25;100027.47;;;5.42
60615;BMP280;46444;45.590;5.284;2023-02-20T06:12:51;100026.53;;;5.35
60615;BMP280;46444;45.590;5.284;2023-02-20T06:15:16;100034.13;;;5.38
60615;BMP280;46444;45.590;5.284;2023-02-20T06:17:42;100032.34;;;5.31
60615;BMP280;46444;45.590;5.284;2023-02-20T06:20:07;100023.88;;;5.35
60615;BMP280;46444;45.590;5.284;2023-02-20T06:22:33;100020.59;;;5.25
60615;BMP280;46444;45.590;5.284;2023-02-20T06:24:58;100028.88;;;5.30
60615;BMP280;46444;45.590;5.284;2023-02-20T06:27:23;100021.91;;;5.29
60615;BMP280;46444;45.590;5.284;2023-02-20T06:29:49;100029.88;;;5.29
60615;BMP280;46444;45.590;5.284;2023-02-20T06:32:15;100030.50;;;5.31
60615;BMP280;46444;45.590;5.284;2023-02-20T06:34:43;100035.13;;;5.37
60615;BMP280;46444;45.590;5.284;2023-02-20T06:37:08;100038.78;;;5.36
60615;BMP280;46444;45.590;5.284;2023-02-20T06:39:33;100033.63;;;5.35
60615;BMP280;46444;45.590;5.284;2023-02-20T08:03:45;100051.66;;;6.23
60615;BMP280;46444;45.590;5.284;2023-02-20T08:06:12;100056.91;;;6.31
60615;BMP280;46444;45.590;5.284;2023-02-20T08:08:37;100048.06;;;6.38
60615;BMP280;46444;45.590;5.284;2023-02-20T08:11:04;100058.66;;;6.38
60615;BMP280;46444;45.590;5.284;2023-02-20T08:13:29;100053.56;;;6.51
60615;BMP280;46444;45.590;5.284;2023-02-20T08:15:54;100052.03;;;6.57
60615;BMP280;46444;45.590;5.284;2023-02-20T08:18:20;100042.34;;;6.64
60615;BMP280;46444;45.590;5.284;2023-02-20T08:20:45;100045.47;;;6.67
60615;BMP280;46444;45.590;5.284;2023-02-20T08:23:20;100053.34;;;6.75
60615;BMP280;46444;45.590;5.284;2023-02-20T08:25:46;100046.31;;;6.82
60615;BMP280;46444;45.590;5.284;2023-02-20T08:28:12;100053.28;;;6.83
60615;BMP280;46444;45.590;5.284;2023-02-20T08:30:37;100045.84;;;6.93
60615;BMP280;46444;45.590;5.284;2023-02-20T08:33:02;100042.72;;;7.04
60615;BMP280;46444;45.590;5.284;2023-02-20T08:35:31;100054.47;;;7.10
60615;BMP280;46444;45.590;5.284;2023-02-20T08:38:00;100045.59;;;7.17
60615;BMP280;46444;45.590;5.284;2023-02-20T08:40:25;100050.16;;;7.23
60615;BMP280;46444;45.590;5.284;2023-02-20T08:42:51;100049.66;;;7.34
60615;BMP280;46444;45.590;5.284;2023-02-20T08:45:16;100044.63;;;7.39
60615;BMP280;46444;45.590;5.284;2023-02-20T08:47:42;100043.69;;;7.47
60615;BMP280;46444;45.590;5.284;2023-02-20T08:50:07;100039.84;;;7.49
60615;BMP280;46444;45.590;5.284;2023-02-20T08:52:33;100045.22;;;7.56
60615;BMP280;46444;45.590;5.284;2023-02-20T08:54:58;100046.97;;;7.63
60615;BMP280;46444;45.590;5.284;2023-02-20T08:57:24;100041.28;;;7.66
60615;BMP280;46444;45.590;5.284;2023-02-20T08:59:49;100039.25;;;7.68
60615;BMP280;46444;45.590;5.284;2023-02-20T09:02:19;100045.47;;;7.75
60615;BMP280;46444;45.590;5.284;2023-02-20T09:04:45;100035.03;;;7.74
60615;BMP280;46444;45.590;5.284;2023-02-20T09:07:12;100045.47;;;7.75
60615;BMP280;46444;45.590;5.284;2023-02-20T09:09:38;100030.66;;;7.87
60615;BMP280;46444;45.590;5.284;2023-02-20T09:12:03;100036.97;;;7.86
60615;BMP280;46444;45.590;5.284;2023-02-20T09:14:29;100039.03;;;7.84
60615;BMP280;46444;45.590;5.284;2023-02-20T09:16:54;100030.53;;;7.95
60615;BMP280;46444;45.590;5.284;2023-02-20T09:19:19;100039.50;;;7.94
60615;BMP280;46444;45.590;5.284;2023-02-20T09:21:46;100033.44;;;8.00
60615;BMP280;46444;45.590;5.284;2023-02-20T09:24:12;100031.44;;;8.02
60615;BMP280;46444;45.590;5.284;2023-02-20T09:26:37;100027.47;;;7.98
60615;BMP280;46444;45.590;5.284;2023-02-20T09:29:03;100020.97;;;8.01
60615;BMP280;46444;45.590;5.284;2023-02-20T09:31:28;100020.63;;;8.10
60615;BMP280;46444;45.590;5.284;2023-02-20T09:33:54;100015.03;;;8.20
60615;BMP280;46444;45.590;5.284;2023-02-20T09:36:19;100013.63;;;8.24
60615;BMP280;46444;45.590;5.284;2023-02-20T09:38:45;100019.66;;;8.32
60615;BMP280;46444;45.590;5.284;2023-02-20T09:41:25;100020.34;;;8.41
60615;BMP280;46444;45.590;5.284;2023-02-20T09:44:16;100010.69;;;8.40
60615;BMP280;46444;45.590;5.284;2023-02-20T09:46:44;100018.34;;;8.49
60615;BMP280;46444;45.590;5.284;2023-02-20T09:49:13;100017.31;;;8.50
60615;BMP280;46444;45.590;5.284;2023-02-20T09:51:48;100013.88;;;8.56
60615;BMP280;46444;45.590;5.284;2023-02-20T09:54:19;100015.28;;;8.52
60615;BMP280;46444;45.590;5.284;2023-02-20T09:56:56;100011.47;;;8.61
60615;BMP280;46444;45.590;5.284;2023-02-20T09:59:37;100005.75;;;8.64
60615;BMP280;46444;45.590;5.284;2023-02-20T10:02:17;100004.97;;;8.70
60615;BMP280;46444;45.590;5.284;2023-02-20T10:04:52;100000.91;;;8.74
60615;BMP280;46444;45.590;5.284;2023-02-20T10:07:38;100001.13;;;8.79
60615;BMP280;46444;45.590;5.284;2023-02-20T10:10:18;100003.41;;;8.82
60615;BMP280;46444;45.590;5.284;2023-02-20T10:15:39;99994.84;;;8.93
60615;BMP280;46444;45.590;5.284;2023-02-20T10:18:19;99990.78;;;8.97
60615;BMP280;46444;45.590;5.284;2023-02-20T10:21:02;99993.44;;;8.97
60615;BMP280;46444;45.590;5.284;2023-02-20T10:26:11;99989.19;;;9.09
60615;BMP280;46444;45.590;5.284;2023-02-20T10:28:38;99994.13;;;9.12
60615;BMP280;46444;45.590;5.284;2023-02-20T10:34:04;99989.63;;;9.19
60615;BMP280;46444;45.590;5.284;2023-02-20T10:36:39;99986.97;;;9.19
60615;BMP280;46444;45.590;5.284;2023-02-20T10:39:15;99983.31;;;9.26
60615;BMP280;46444;45.590;5.284;2023-02-20T10:41:51;99983.75;;;9.30
60615;BMP280;46444;45.590;5.284;2023-02-20T10:44:49;99977.84;;;9.34
60615;BMP280;46444;45.590;5.284;2023-02-20T10:52:34;99978.91;;;9.53
60615;BMP280;46444;45.590;5.284;2023-02-20T10:55:10;99976.22;;;9.53
60615;BMP280;46444;45.590;5.284;2023-02-20T10:57:46;99970.09;;;9.59
60615;BMP280;46444;45.590;5.284;2023-02-20T11:00:16;99977.72;;;9.62
60615;BMP280;46444;45.590;5.284;2023-02-20T11:02:47;99970.91;;;9.66
60615;BMP280;46444;45.590;5.284;2023-02-20T11:05:20;99969.91;;;9.73
60615;BMP280;46444;45.590;5.284;2023-02-20T11:07:48;99960.69;;;9.76
60615;BMP280;46444;45.590;5.284;2023-02-20T11:10:14;99956.78;;;9.78
60615;BMP280;46444;45.590;5.284;2023-02-20T11:12:44;99963.56;;;9.81
60615;BMP280;46444;45.590;5.284;2023-02-20T11:15:11;99949.41;;;9.87
60615;BMP280;46444;45.590;5.284;2023-02-20T11:17:39;99950.66;;;9.91
60615;BMP280;46444;45.590;5.284;2023-02-20T11:22:58;99959.06;;;10.01
60615;BMP280;46444;45.590;5.284;2023-02-20T11:25:27;99961.16;;;10.05
60615;BMP280;46444;45.590;5.284;2023-02-20T11:27:56;99955.81;;;10.05
60615;BMP280;46444;45.590;5.284;2023-02-20T11:30:31;99964.88;;;10.11
60615;BMP280;46444;45.590;5.284;2023-02-20T11:35:38;99953.56;;;10.22
60615;BMP280;46444;45.590;5.284;2023-02-20T11:43:41;99927.44;;;10.37
60615;BMP280;46444;45.590;5.284;2023-02-20T11:48:33;99932.16;;;10.48
60615;BMP280;46444;45.590;5.284;2023-02-20T11:50:59;99924.13;;;10.48
60615;BMP280;46444;45.590;5.284;2023-02-20T11:53:27;99920.03;;;10.52
60615;BMP280;46444;45.590;5.284;2023-02-20T11:56:12;99917.13;;;10.60
60615;BMP280;46444;45.590;5.284;2023-02-20T11:58:38;99916.72;;;10.63
60615;BMP280;46444;45.590;5.284;2023-02-20T12:01:05;99907.41;;;10.72
60615;BMP280;46444;45.590;5.284;2023-02-20T12:03:32;99907.63;;;10.77
60615;BMP280;46444;45.590;5.284;2023-02-20T12:06:26;99906.59;;;10.78
60615;BMP280;46444;45.590;5.284;2023-02-20T12:08:59;99896.91;;;10.83
60615;BMP280;46444;45.590;5.284;2023-02-20T12:11:27;99885.13;;;10.91
60615;BMP280;46444;45.590;5.284;2023-02-20T12:13:55;99883.28;;;10.98
60615;BMP280;46444;45.590;5.284;2023-02-20T12:41:23;99821.59;;;15.52
60615;BMP280;46444;45.590;5.284;2023-02-20T12:52:04;99800.81;;;19.63
60615;BMP280;46444;45.590;5.284;2023-02-20T12:57:25;99805.16;;;19.89
60615;BMP280;46444;45.590;5.284;2023-02-20T13:00:00;99794.97;;;20.69
60615;BMP280;46444;45.590;5.284;2023-02-20T13:02:34;99802.88;;;20.61
60615;BMP280;46444;45.590;5.284;2023-02-20T13:05:02;99788.84;;;21.84
60615;BMP280;46444;45.590;5.284;2023-02-20T13:07:46;99788.19;;;21.92
60615;BMP280;46444;45.590;5.284;2023-02-20T13:10:21;99774.28;;;22.22
60615;BMP280;46444;45.590;5.284;2023-02-20T13:12:49;99767.78;;;23.12
60615;BMP280;46444;45.590;5.284;2023-02-20T13:20:54;99748.53;;;23.91
60615;BMP280;46444;45.590;5.284;2023-02-20T13:25:47;99748.28;;;24.33
60615;BMP280;46444;45.590;5.284;2023-02-20T13:31:15;99735.81;;;24.68
60615;BMP280;46444;45.590;5.284;2023-02-20T13:33:49;99732.03;;;25.04
60615;BMP280;46444;45.590;5.284;2023-02-20T13:41:58;99719.34;;;25.08
60615;BMP280;46444;45.590;5.284;2023-02-20T13:52:43;99697.75;;;25.64
60615;BMP280;46444;45.590;5.284;2023-02-20T13:57:47;99699.44;;;25.82
60615;BMP280;46444;45.590;5.284;2023-02-20T14:03:32;99679.16;;;26.61
60615;BMP280;46444;45.590;5.284;2023-02-20T14:08:30;99674.03;;;27.11
60615;BMP280;46444;45.590;5.284;2023-02-20T14:11:26;99672.38;;;26.67
60615;BMP280;46444;45.590;5.284;2023-02-20T14:13:52;99672.31;;;26.33
60615;BMP280;46444;45.590;5.284;2023-02-20T14:16:34;99672.00;;;26.43
60615;BMP280;46444;45.590;5.284;2023-02-20T14:19:06;99668.47;;;26.43
60615;BMP280;46444;45.590;5.284;2023-02-20T14:21:34;99669.38;;;26.30
60615;BMP280;46444;45.590;5.284;2023-02-20T14:24:16;99662.47;;;26.41
60615;BMP280;46444;45.590;5.284;2023-02-20T14:26:42;99660.00;;;26.87
60615;BMP280;46444;45.590;5.284;2023-02-20T14:29:20;99647.56;;;26.72
60615;BMP280;46444;45.590;5.284;2023-02-20T14:31:49;99653.13;;;26.50
60615;BMP280;46444;45.590;5.284;2023-02-20T14:34:43;99654.06;;;25.37
60615;BMP280;46444;45.590;5.284;2023-02-20T14:42:29;99636.94;;;26.15
60615;BMP280;46444;45.590;5.284;2023-02-20T14:44:59;99622.31;;;26.28
60615;BMP280;46444;45.590;5.284;2023-02-20T14:47:25;99622.97;;;26.50
60615;BMP280;46444;45.590;5.284;2023-02-20T14:49:50;99622.59;;;25.79
60615;BMP280;46444;45.590;5.284;2023-02-20T14:52:23;99620.63;;;25.71
60615;BMP280;46444;45.590;5.284;2023-02-20T14:55:02;99623.78;;;25.34
60615;BMP280;46444;45.590;5.284;2023-02-20T14:57:28;99612.09;;;25.72
60615;BMP280;46444;45.590;5.284;2023-02-20T15:00:08;99602.25;;;24.75
60615;BMP280;46444;45.590;5.284;2023-02-20T15:02:34;99607.59;;;24.44
60615;BMP280;46444;45.590;5.284;2023-02-20T15:05:04;99612.44;;;23.53
60615;BMP280;46444;45.590;5.284;2023-02-20T15:07:30;99605.72;;;23.18
60615;BMP280;46444;45.590;5.284;2023-02-20T15:09:59;99608.41;;;23.50
60615;BMP280;46444;45.590;5.284;2023-02-20T15:12:44;99596.72;;;22.99
60615;BMP280;46444;45.590;5.284;2023-02-20T15:15:12;99598.06;;;23.34
60615;BMP280;46444;45.590;5.284;2023-02-20T15:17:40;99588.66;;;23.26
60615;BMP280;46444;45.590;5.284;2023-02-20T15:22:41;99582.38;;;22.94
60615;BMP280;46444;45.590;5.284;2023-02-20T15:25:29;99581.47;;;22.98
60615;BMP280;46444;45.590;5.284;2023-02-20T15:28:23;99567.97;;;22.56
60615;BMP280;46444;45.590;5.284;2023-02-20T15:33:46;99581.22;;;22.02
60615;BMP280;46444;45.590;5.284;2023-02-20T15:36:17;99577.06;;;21.86
60615;BMP280;46444;45.590;5.284;2023-02-20T15:38:43;99576.41;;;21.47
60615;BMP280;46444;45.590;5.284;2023-02-20T15:41:09;99574.16;;;21.54
60615;BMP280;46444;45.590;5.284;2023-02-20T15:43:35;99570.53;;;21.40
60615;BMP280;46444;45.590;5.284;2023-02-20T15:46:00;99573.25;;;20.73
60615;BMP280;46444;45.590;5.284;2023-02-20T15:48:25;99576.19;;;20.82
60615;BMP280;46444;45.590;5.284;2023-02-20T15:50:51;99568.91;;;20.34
60615;BMP280;46444;45.590;5.284;2023-02-20T15:53:21;99564.84;;;20.31
60615;BMP280;46444;45.590;5.284;2023-02-20T15:55:49;99569.38;;;19.97
60615;BMP280;46444;45.590;5.284;2023-02-20T15:58:36;99564.34;;;19.61
60615;BMP280;46444;45.590;5.284;2023-02-20T16:01:03;99559.00;;;19.46
60615;BMP280;46444;45.590;5.284;2023-02-20T16:03:30;99559.28;;;19.34
60615;BMP280;46444;45.590;5.284;2023-02-20T16:05:55;99561.44;;;19.12
60615;BMP280;46444;45.590;5.284;2023-02-20T16:08:22;99559.31;;;18.75
60615;BMP280;46444;45.590;5.284;2023-02-20T16:10:49;99556.31;;;18.51
60615;BMP280;46444;45.590;5.284;2023-02-20T16:15:49;99552.50;;;18.32
60615;BMP280;46444;45.590;5.284;2023-02-20T16:18:15;99557.03;;;18.17
60615;BMP280;46444;45.590;5.284;2023-02-20T16:20:40;99546.16;;;17.97
60615;BMP280;46444;45.590;5.284;2023-02-20T16:23:06;99553.41;;;17.81
60615;BMP280;46444;45.590;5.284;2023-02-20T16:25:33;99549.53;;;17.67
60615;BMP280;46444;45.590;5.284;2023-02-20T16:27:59;99550.88;;;17.60
60615;BMP280;46444;45.590;5.284;2023-02-20T16:32:53;99549.00;;;17.19
60615;BMP280;46444;45.590;5.284;2023-02-20T16:35:20;99543.44;;;16.99
60615;BMP280;46444;45.590;5.284;2023-02-20T16:37:45;99547.22;;;16.61
60615;BMP280;46444;45.590;5.284;2023-02-20T16:40:12;99541.53;;;16.58
60615;BMP280;46444;45.590;5.284;2023-02-20T16:42:39;99541.31;;;16.38
60615;BMP280;46444;45.590;5.284;2023-02-20T16:45:17;99538.25;;;16.29
60615;BMP280;46444;45.590;5.284;2023-02-20T16:47:47;99534.91;;;16.17
60615;BMP280;46444;45.590;5.284;2023-02-20T16:50:14;99538.78;;;16.00
60615;BMP280;46444;45.590;5.284;2023-02-20T16:52:41;99532.63;;;15.83
60615;BMP280;46444;45.590;5.284;2023-02-20T16:55:18;99543.81;;;15.70
60615;BMP280;46444;45.590;5.284;2023-02-20T16:57:43;99541.91;;;15.49
60615;BMP280;46444;45.590;5.284;2023-02-20T17:00:13;99540.50;;;15.41
60615;BMP280;46444;45.590;5.284;2023-02-20T17:02:39;99540.78;;;15.28
60615;BMP280;46444;45.590;5.284;2023-02-20T17:05:04;99541.06;;;15.10
60615;BMP280;46444;45.590;5.284;2023-02-20T17:07:30;99538.56;;;15.04
60615;BMP280;46444;45.590;5.284;2023-02-20T17:09:55;99549.69;;;14.91
60615;BMP280;46444;45.590;5.284;2023-02-20T17:12:22;99551.66;;;14.79
60615;BMP280;46444;45.590;5.284;2023-02-20T17:14:48;99547.31;;;14.61
60615;BMP280;46444;45.590;5.284;2023-02-20T17:17:14;99553.34;;;14.52
60615;BMP280;46444;45.590;5.284;2023-02-20T17:19:41;99557.47;;;14.43
60615;BMP280;46444;45.590;5.284;2023-02-20T17:22:07;99554.03;;;14.31
60615;BMP280;46444;45.590;5.284;2023-02-20T17:24:33;99558.41;;;14.20
60615;BMP280;46444;45.590;5.284;2023-02-20T17:27:00;99563.00;;;14.08
60615;BMP280;46444;45.590;5.284;2023-02-20T17:29:26;99566.66;;;14.02
60615;BMP280;46444;45.590;5.284;2023-02-20T17:31:53;99559.34;;;13.86
60615;BMP280;46444;45.590;5.284;2023-02-20T17:34:19;99561.94;;;13.81
60615;BMP280;46444;45.590;5.284;2023-02-20T17:36:44;99565.47;;;13.70
60615;BMP280;46444;45.590;5.284;2023-02-20T17:39:19;99576.34;;;13.64
60615;BMP280;46444;45.590;5.284;2023-02-20T17:41:46;99575.88;;;13.55
60615;BMP280;46444;45.590;5.284;2023-02-20T17:44:16;99579.19;;;13.46
60615;BMP280;46444;45.590;5.284;2023-02-20T17:46:42;99576.63;;;13.39
60615;BMP280;46444;45.590;5.284;2023-02-20T17:49:07;99575.13;;;13.32
60615;BMP280;46444;45.590;5.284;2023-02-20T17:51:32;99577.56;;;13.22
60615;BMP280;46444;45.590;5.284;2023-02-20T17:53:58;99585.28;;;13.18
60615;BMP280;46444;45.590;5.284;2023-02-20T17:56:23;99587.50;;;13.10
60615;BMP280;46444;45.590;5.284;2023-02-20T17:58:49;99572.81;;;13.01